createdAt,value
2018-04-08T00:01:27.853Z,7.53
2018-04-08T00:03:55.333Z,7.45
2018-04-08T00:06:22.789Z,7.72
2018-04-08T00:08:50.250Z,7.47
2018-04-08T00:11:17.706Z,7.57
2018-04-08T00:13:45.181Z,7.30
2018-04-08T00:16:13.401Z,8.30
2018-04-08T00:18:40.868Z,6.75
2018-04-08T00:21:08.329Z,7.90
2018-04-08T00:23:35.801Z,7.70
2018-04-08T00:26:03.266Z,8.00
2018-04-08T00:28:30.724Z,8.43
2018-04-08T00:30:58.174Z,8.07
2018-04-08T00:33:25.640Z,8.65
2018-04-08T00:35:53.093Z,7.43
2018-04-08T00:38:20.557Z,8.45
2018-04-08T00:40:48.008Z,7.75
2018-04-08T00:43:16.274Z,7.53
2018-04-08T00:45:43.734Z,9.07
2018-04-08T00:48:11.197Z,8.25
2018-04-08T00:50:38.649Z,8.27
2018-04-08T00:53:06.125Z,8.93
2018-04-08T00:55:34.373Z,9.32
2018-04-08T00:58:01.833Z,8.10
2018-04-08T01:00:29.281Z,8.27
2018-04-08T01:02:56.740Z,7.90
2018-04-08T01:05:24.193Z,9.05
2018-04-08T01:07:51.649Z,8.05
2018-04-08T01:10:19.105Z,8.60
2018-04-08T01:12:46.565Z,8.50
2018-04-08T01:15:14.008Z,8.75
2018-04-08T01:17:41.484Z,8.05
2018-04-08T01:20:08.921Z,8.98
2018-04-08T01:22:36.389Z,7.28
2018-04-08T01:25:03.845Z,9.00
2018-04-08T01:27:31.303Z,9.10
2018-04-08T01:29:58.750Z,8.55
2018-04-08T01:32:26.221Z,8.52
2018-04-08T01:34:53.675Z,8.52
2018-04-08T01:37:21.123Z,8.50
2018-04-08T01:39:48.574Z,9.00
2018-04-08T01:42:16.030Z,9.07
2018-04-08T01:44:43.478Z,8.80
2018-04-08T01:47:10.933Z,8.50
2018-04-08T01:49:38.389Z,7.45
2018-04-08T01:52:05.828Z,8.63
2018-04-08T01:54:33.273Z,9.38
2018-04-08T01:57:01.491Z,9.18
2018-04-08T01:59:28.960Z,10.77
2018-04-08T02:01:56.416Z,8.07
2018-04-08T02:04:23.874Z,9.38
2018-04-08T02:06:51.330Z,8.57
2018-04-08T02:09:18.788Z,8.02
2018-04-08T02:11:46.238Z,8.60
2018-04-08T02:14:13.706Z,7.40
2018-04-08T02:16:41.185Z,7.80
2018-04-08T02:19:08.637Z,7.57
2018-04-08T02:21:36.081Z,7.68
2018-04-08T02:24:03.533Z,7.22
2018-04-08T02:26:30.978Z,7.70
2018-04-08T02:28:58.437Z,8.10
2018-04-08T02:31:25.889Z,7.95
2018-04-08T02:33:53.348Z,7.37
2018-04-08T02:36:20.793Z,8.75
2018-04-08T02:38:48.243Z,7.87
2018-04-08T02:41:15.695Z,7.95
2018-04-08T02:43:43.153Z,7.05
2018-04-08T02:46:10.610Z,7.93
2018-04-08T02:48:38.084Z,7.35
2018-04-08T02:51:05.537Z,7.62
2018-04-08T02:53:32.994Z,9.07
2018-04-08T02:56:00.429Z,9.68
2018-04-08T02:58:27.880Z,8.40
2018-04-08T03:00:55.326Z,9.15
2018-04-08T03:03:23.541Z,8.52
2018-04-08T03:05:50.998Z,8.73
2018-04-08T03:08:18.447Z,9.32
2018-04-08T03:10:45.896Z,11.20
2018-04-08T03:13:13.365Z,10.05
2018-04-08T03:15:40.834Z,9.35
2018-04-08T03:18:08.328Z,8.40
2018-04-08T03:20:35.767Z,8.05
2018-04-08T03:23:03.229Z,8.63
2018-04-08T03:25:30.673Z,7.72
2018-04-08T03:27:58.136Z,7.80
2018-04-08T03:30:25.573Z,5.95
2018-04-08T03:32:53.030Z,7.60
2018-04-08T03:35:20.488Z,7.25
2018-04-08T03:37:47.949Z,6.90
2018-04-08T03:40:15.401Z,6.37
2018-04-08T03:42:42.842Z,6.20
2018-04-08T03:45:10.305Z,6.43
2018-04-08T03:47:37.744Z,6.05
2018-04-08T03:50:05.183Z,6.32
2018-04-08T03:52:33.396Z,5.80
2018-04-08T03:55:00.854Z,5.68
2018-04-08T03:57:28.309Z,6.93
2018-04-08T03:59:55.768Z,5.62
2018-04-08T04:02:23.219Z,5.53
2018-04-08T04:04:50.675Z,5.43
2018-04-08T04:07:18.112Z,6.18
2018-04-08T04:09:45.556Z,6.07
2018-04-08T04:12:13.865Z,6.68
2018-04-08T04:14:41.325Z,6.45
2018-04-08T04:17:08.774Z,7.40
2018-04-08T04:19:48.156Z,6.18
2018-04-08T04:22:27.482Z,5.60
2018-04-08T04:25:06.753Z,6.37
2018-04-08T04:27:34.956Z,6.35
2018-04-08T04:30:02.421Z,6.15
2018-04-08T04:32:29.873Z,6.55
2018-04-08T04:34:57.332Z,6.30
2018-04-08T04:37:24.773Z,5.53
2018-04-08T04:39:52.229Z,6.40
2018-04-08T04:42:19.679Z,6.12
2018-04-08T04:44:47.121Z,5.25
2018-04-08T04:47:15.337Z,7.05
2018-04-08T04:49:42.777Z,5.70
2018-04-08T04:52:10.235Z,5.55
2018-04-08T04:54:37.676Z,5.22
2018-04-08T04:57:05.134Z,6.53
2018-04-08T04:59:32.573Z,6.85
2018-04-08T05:02:00.787Z,6.00
2018-04-08T05:04:28.237Z,6.10
2018-04-08T05:06:55.685Z,5.50
2018-04-08T05:09:23.132Z,5.75
2018-04-08T05:11:51.345Z,6.03
2018-04-08T05:14:18.788Z,5.90
2018-04-08T05:16:46.261Z,6.40
2018-04-08T05:19:13.705Z,6.78
2018-04-08T05:21:41.161Z,6.93
2018-04-08T05:24:08.618Z,6.82
2018-04-08T05:26:36.061Z,6.40
2018-04-08T05:29:03.522Z,7.47
2018-04-08T05:31:30.984Z,7.55
2018-04-08T05:33:58.431Z,8.07
2018-04-08T05:36:25.875Z,8.52
2018-04-08T05:38:53.333Z,7.65
2018-04-08T05:41:21.548Z,7.62
2018-04-08T05:43:48.985Z,7.37
2018-04-08T05:46:16.428Z,7.95
2018-04-08T05:48:43.885Z,6.70
2018-04-08T05:51:11.330Z,6.55
2018-04-08T05:53:39.546Z,7.20
2018-04-08T05:56:06.992Z,7.00
2018-04-08T05:58:34.429Z,8.00
2018-04-08T06:01:01.890Z,9.30
2018-04-08T06:03:29.345Z,8.10
2018-04-08T06:05:56.801Z,8.75
2018-04-08T06:08:24.257Z,8.90
2018-04-08T06:10:51.737Z,9.02
2018-04-08T06:13:19.168Z,7.85
2018-04-08T06:15:46.625Z,7.72
2018-04-08T06:18:14.089Z,8.10
2018-04-08T06:20:42.361Z,7.85
2018-04-08T06:23:09.816Z,7.93
2018-04-08T06:25:37.269Z,7.93
2018-04-08T06:28:04.726Z,7.45
2018-04-08T06:30:32.184Z,7.57
2018-04-08T06:32:59.640Z,6.87
2018-04-08T06:35:27.098Z,6.37
2018-04-08T06:37:54.562Z,6.22
2018-04-08T06:40:22.008Z,6.60
2018-04-08T06:42:49.482Z,5.95
2018-04-08T06:45:16.961Z,7.18
2018-04-08T06:47:44.424Z,6.53
2018-04-08T06:50:11.887Z,6.35
2018-04-08T06:52:39.364Z,6.15
2018-04-08T06:55:07.101Z,6.50
2018-04-08T07:00:09.358Z,5.43
2018-04-08T07:02:36.818Z,5.83
2018-04-08T07:05:04.271Z,6.25
2018-04-08T07:07:31.724Z,5.60
2018-04-08T07:09:59.169Z,5.72
2018-04-08T07:12:26.624Z,5.40
2018-04-08T07:14:54.868Z,5.50
2018-04-08T07:17:22.357Z,5.10
2018-04-08T07:19:50.565Z,5.70
2018-04-08T07:22:18.022Z,5.93
2018-04-08T07:24:45.481Z,5.90
2018-04-08T07:27:12.933Z,4.70
2018-04-08T07:29:40.376Z,5.50
2018-04-08T07:32:07.831Z,5.07
2018-04-08T07:34:35.476Z,5.00
2018-04-08T07:37:03.705Z,6.27
2018-04-08T07:39:31.175Z,6.03
2018-04-08T07:41:58.630Z,6.53
2018-04-08T07:44:26.090Z,6.37
2018-04-08T07:46:53.749Z,6.10
2018-04-08T07:49:21.231Z,6.20
2018-04-08T07:51:49.544Z,5.43
2018-04-08T07:54:17.154Z,5.10
2018-04-08T07:56:44.602Z,6.13
2018-04-08T07:59:12.231Z,5.50
2018-04-08T08:01:39.684Z,6.10
2018-04-08T08:04:07.352Z,6.03
2018-04-08T08:06:35.096Z,6.17
2018-04-08T08:09:02.884Z,5.90
2018-04-08T08:11:30.607Z,5.20
2018-04-08T08:13:58.328Z,5.87
2018-04-08T08:16:26.704Z,5.47
2018-04-08T08:18:54.172Z,5.00
2018-04-08T08:21:21.664Z,5.77
2018-04-08T08:23:49.881Z,5.70
2018-04-08T08:26:17.325Z,5.70
2018-04-08T08:28:44.780Z,5.27
2018-04-08T08:31:13.000Z,4.93
2018-04-08T08:33:40.464Z,5.90
2018-04-08T08:36:08.000Z,5.50
2018-04-08T08:38:35.502Z,5.50
2018-04-08T08:41:03.941Z,5.73
2018-04-08T08:43:32.211Z,5.60
2018-04-08T08:45:59.754Z,6.17
2018-04-08T08:48:27.205Z,5.77
2018-04-08T08:50:54.689Z,6.03
2018-04-08T08:53:22.319Z,6.80
2018-04-08T08:55:49.974Z,6.60
2018-04-08T08:58:17.507Z,6.73
2018-04-08T09:00:45.739Z,6.93
2018-04-08T09:03:13.199Z,7.10
2018-04-08T09:05:40.642Z,6.87
2018-04-08T09:08:09.708Z,7.10
2018-04-08T09:10:37.168Z,6.40
2018-04-08T09:13:04.665Z,7.27
2018-04-08T09:15:32.178Z,6.77
2018-04-08T09:18:00.458Z,6.67
2018-04-08T09:23:35.253Z,6.20
2018-04-08T09:26:05.296Z,7.03
2018-04-08T09:28:32.756Z,7.10
2018-04-08T09:31:00.209Z,8.47
2018-04-08T09:33:27.755Z,6.73
2018-04-08T09:35:55.198Z,8.00
2018-04-08T09:38:22.659Z,7.50
2018-04-08T09:40:50.122Z,7.70
2018-04-08T09:43:17.573Z,8.23
2018-04-08T09:45:45.024Z,7.57
2018-04-08T09:48:12.474Z,7.80
2018-04-08T09:50:39.941Z,8.00
2018-04-08T09:53:07.389Z,8.40
2018-04-08T09:55:34.834Z,8.90
2018-04-08T09:58:08.049Z,7.80
2018-04-08T10:00:54.314Z,8.57
2018-04-08T10:03:26.729Z,8.13
2018-04-08T10:05:54.191Z,7.80
2018-04-08T10:08:21.652Z,9.07
2018-04-08T10:10:49.123Z,7.87
2018-04-08T10:13:17.361Z,8.27
2018-04-08T10:15:44.866Z,8.37
2018-04-08T10:18:13.079Z,8.70
2018-04-08T10:20:40.554Z,10.07
2018-04-08T10:23:08.015Z,10.60
2018-04-08T10:25:35.554Z,10.43
2018-04-08T10:28:03.769Z,11.97
2018-04-08T10:30:31.245Z,12.87
2018-04-08T10:32:59.560Z,10.63
2018-04-08T10:35:27.787Z,11.33
2018-04-08T10:37:56.005Z,11.00
2018-04-08T10:40:23.463Z,12.33
2018-04-08T10:42:50.907Z,12.50
2018-04-08T10:45:18.370Z,12.03
2018-04-08T10:47:45.834Z,11.20
2018-04-08T10:50:14.084Z,12.67
2018-04-08T10:52:41.566Z,11.77
2018-04-08T10:55:09.847Z,11.50
2018-04-08T10:57:37.298Z,11.90
2018-04-08T11:00:04.852Z,11.93
2018-04-08T11:02:32.385Z,11.33
2018-04-08T11:05:00.650Z,11.37
2018-04-08T11:07:28.091Z,10.63
2018-04-08T11:09:55.542Z,9.97
2018-04-08T11:12:23.001Z,10.07
2018-04-08T11:14:50.528Z,11.80
2018-04-08T11:17:18.752Z,13.30
2018-04-08T11:19:46.975Z,12.47
2018-04-08T11:22:14.428Z,12.27
2018-04-08T11:24:41.982Z,12.63
2018-04-08T11:27:09.428Z,11.57
2018-04-08T11:29:36.893Z,12.53
2018-04-08T11:32:04.355Z,12.40
2018-04-08T11:34:31.826Z,12.50
2018-04-08T11:36:59.274Z,12.60
2018-04-08T11:39:27.024Z,13.13
2018-04-08T11:41:55.026Z,12.73
2018-04-08T11:44:22.495Z,13.27
2018-04-08T11:46:50.599Z,12.30
2018-04-08T11:49:18.824Z,11.20
2018-04-08T11:51:46.281Z,12.73
2018-04-08T11:54:13.746Z,12.60
2018-04-08T11:56:41.194Z,12.10
2018-04-08T11:59:08.648Z,12.80
2018-04-08T12:01:36.097Z,12.30
2018-04-08T12:04:03.549Z,14.23
2018-04-08T12:06:31.008Z,16.03
2018-04-08T12:08:59.239Z,18.10
2018-04-08T12:11:27.453Z,14.40
2018-04-08T12:13:54.912Z,12.50
2018-04-08T12:16:22.373Z,11.53
2018-04-08T12:18:49.838Z,14.10
2018-04-08T12:21:17.287Z,13.20
2018-04-08T12:23:44.740Z,14.10
2018-04-08T12:26:12.198Z,14.83
2018-04-08T12:28:39.658Z,14.90
2018-04-08T12:31:07.113Z,13.53
2018-04-08T12:33:34.577Z,15.47
2018-04-08T12:36:02.037Z,13.43
2018-04-08T12:38:29.536Z,14.83
2018-04-08T12:40:57.760Z,14.13
2018-04-08T12:43:25.257Z,12.93
2018-04-08T12:45:52.730Z,15.00
2018-04-08T12:48:20.952Z,14.33
2018-04-08T12:50:48.428Z,15.50
2018-04-08T12:53:15.890Z,12.63
2018-04-08T12:55:43.356Z,14.10
2018-04-08T12:58:10.821Z,12.63
2018-04-08T13:00:38.286Z,12.50
2018-04-08T13:03:05.753Z,12.53
2018-04-08T13:05:33.976Z,13.17
2018-04-08T13:08:01.441Z,13.90
2018-04-08T13:10:30.143Z,13.97
2018-04-08T13:12:57.598Z,11.87
2018-04-08T13:15:25.167Z,13.60
2018-04-08T13:17:52.616Z,12.40
2018-04-08T13:20:20.078Z,12.40
2018-04-08T13:22:47.542Z,12.57
2018-04-08T13:25:15.007Z,11.97
2018-04-08T13:27:42.464Z,12.50
2018-04-08T13:30:10.786Z,13.43
2018-04-08T13:32:38.237Z,13.77
2018-04-08T13:35:05.703Z,15.80
2018-04-08T13:37:33.170Z,12.40
2018-04-08T13:40:00.641Z,13.00
2018-04-08T13:42:28.102Z,16.90
2018-04-08T13:44:55.578Z,13.00
2018-04-08T13:47:23.042Z,13.10
2018-04-08T13:49:50.514Z,13.57
2018-04-08T13:52:18.737Z,13.20
2018-04-08T13:54:46.744Z,13.80
2018-04-08T13:57:14.264Z,13.90
2018-04-08T13:59:42.010Z,14.40
2018-04-08T14:02:09.491Z,13.87
2018-04-08T14:04:36.949Z,13.20
2018-04-08T14:07:04.428Z,12.80
2018-04-08T14:09:31.898Z,13.37
2018-04-08T14:12:00.123Z,12.20
2018-04-08T14:14:27.655Z,12.27
2018-04-08T14:16:55.078Z,12.77
2018-04-08T14:19:22.530Z,13.37
2018-04-08T14:21:50.194Z,11.47
2018-04-08T14:24:17.789Z,12.00
2018-04-08T14:26:45.375Z,13.47
2018-04-08T14:29:12.841Z,12.53
2018-04-08T14:31:40.342Z,13.10
2018-04-08T14:34:07.792Z,12.97
2018-04-08T14:36:35.262Z,12.77
2018-04-08T14:39:03.493Z,13.70
2018-04-08T14:41:30.962Z,11.90
2018-04-08T14:43:58.409Z,12.90
2018-04-08T14:46:25.943Z,13.50
2018-04-08T14:48:54.133Z,12.90
2018-04-08T14:51:21.606Z,12.83
2018-04-08T14:53:49.075Z,13.30
2018-04-08T14:56:16.538Z,13.50
2018-04-08T14:58:44.018Z,13.23
2018-04-08T15:01:12.263Z,15.03
2018-04-08T15:03:39.718Z,14.07
2018-04-08T15:06:07.182Z,13.60
2018-04-08T15:08:34.647Z,13.77
2018-04-08T15:11:02.106Z,18.50
2018-04-08T15:13:29.732Z,20.50
2018-04-08T15:15:58.023Z,15.40
2018-04-08T15:18:25.476Z,17.03
2018-04-08T15:20:52.948Z,16.33
2018-04-08T15:23:20.401Z,14.57
2018-04-08T15:25:47.858Z,14.70
2018-04-08T15:28:15.319Z,14.10
2018-04-08T15:30:42.785Z,14.00
2018-04-08T15:33:10.247Z,14.33
2018-04-08T15:35:37.704Z,15.00
2018-04-08T15:38:05.930Z,13.83
2018-04-08T15:40:33.422Z,14.17
2018-04-08T15:43:00.869Z,14.57
2018-04-08T15:45:28.327Z,13.70
2018-04-08T15:47:55.786Z,13.80
2018-04-08T15:50:23.281Z,13.13
2018-04-08T15:52:51.503Z,13.20
2018-04-08T15:55:18.968Z,11.77
2018-04-08T15:57:46.426Z,13.87
2018-04-08T16:00:13.875Z,12.83
2018-04-08T16:02:41.445Z,12.13
2018-04-08T16:05:08.887Z,14.20
2018-04-08T16:07:36.380Z,14.70
2018-04-08T16:10:03.859Z,14.70
2018-04-08T16:12:31.390Z,13.80
2018-04-08T16:14:59.633Z,13.90
2018-04-08T16:17:27.104Z,13.57
2018-04-08T16:19:54.561Z,13.57
2018-04-08T16:22:22.029Z,13.90
2018-04-08T16:24:49.493Z,11.13
2018-04-08T16:27:16.949Z,11.77
2018-04-08T16:29:44.401Z,14.60
2018-04-08T16:32:11.855Z,12.93
2018-04-08T16:34:39.313Z,13.03
2018-04-08T16:37:06.778Z,13.70
2018-04-08T16:39:34.225Z,12.87
2018-04-08T16:42:01.707Z,13.33
2018-04-08T16:44:29.177Z,12.33
2018-04-08T16:46:57.412Z,12.50
2018-04-08T16:49:24.868Z,12.67
2018-04-08T16:51:52.319Z,11.07
2018-04-08T16:54:19.779Z,12.50
2018-04-08T16:56:48.067Z,12.13
2018-04-08T16:59:15.591Z,12.47
2018-04-08T17:01:43.038Z,11.03
2018-04-08T17:04:10.504Z,11.67
2018-04-08T17:06:37.977Z,12.40
2018-04-08T17:09:06.306Z,11.77
2018-04-08T17:11:34.538Z,10.90
2018-04-08T17:14:02.001Z,12.50
2018-04-08T17:16:29.468Z,10.73
2018-04-08T17:18:56.930Z,12.37
2018-04-08T17:21:24.398Z,11.80
2018-04-08T17:23:51.859Z,11.77
2018-04-08T17:26:19.318Z,13.37
2018-04-08T17:28:47.551Z,10.00
2018-04-08T17:31:15.018Z,13.07
2018-04-08T17:33:42.473Z,11.30
2018-04-08T17:36:09.932Z,10.70
2018-04-08T17:38:37.390Z,10.47
2018-04-08T17:41:04.845Z,12.23
2018-04-08T17:43:32.317Z,11.63
2018-04-08T17:45:59.773Z,10.20
2018-04-08T17:48:27.236Z,12.03
2018-04-08T17:50:54.696Z,12.07
2018-04-08T17:53:22.155Z,12.40
2018-04-08T17:55:49.614Z,11.10
2018-04-08T17:58:17.852Z,11.20
2018-04-08T18:00:46.245Z,11.57
2018-04-08T18:03:13.832Z,11.80
2018-04-08T18:05:42.068Z,11.70
2018-04-08T18:08:09.520Z,9.97
2018-04-08T18:10:36.999Z,13.03
2018-04-08T18:13:04.613Z,11.40
2018-04-08T18:15:32.111Z,10.77
2018-04-08T18:17:59.600Z,11.40
2018-04-08T18:20:27.824Z,10.93
2018-04-08T18:22:55.278Z,9.70
2018-04-08T18:25:22.736Z,11.73
2018-04-08T18:27:50.232Z,11.97
2018-04-08T18:30:17.701Z,11.50
2018-04-08T18:32:45.961Z,10.53
2018-04-08T18:35:14.210Z,10.37
2018-04-08T18:37:41.741Z,11.87
2018-04-08T18:40:09.218Z,11.60
2018-04-08T18:42:42.355Z,12.00
2018-04-08T18:45:09.822Z,10.73
2018-04-08T18:47:38.053Z,11.80
2018-04-08T18:50:05.526Z,11.93
2018-04-08T18:52:33.002Z,11.57
2018-04-08T18:55:00.471Z,11.10
2018-04-08T18:57:28.752Z,11.87
2018-04-08T18:59:56.259Z,10.70
2018-04-08T19:02:34.310Z,11.10
2018-04-08T19:05:02.566Z,10.57
2018-04-08T19:07:30.048Z,11.87
2018-04-08T19:09:58.405Z,11.67
2018-04-08T19:12:26.662Z,10.70
2018-04-08T19:14:59.697Z,11.70
2018-04-08T19:17:32.736Z,10.57
2018-04-08T19:20:00.245Z,10.97
2018-04-08T19:22:27.727Z,11.70
2018-04-08T19:24:55.184Z,10.27
2018-04-08T19:27:28.372Z,11.60
2018-04-08T19:29:55.836Z,10.93
2018-04-08T19:32:23.341Z,11.87
2018-04-08T19:34:50.817Z,11.83
2018-04-08T19:37:18.313Z,11.13
2018-04-08T19:39:45.873Z,10.67
2018-04-08T19:42:13.350Z,11.80
2018-04-08T19:44:40.855Z,11.60
2018-04-08T19:47:08.408Z,9.87
2018-04-08T19:49:43.064Z,11.47
2018-04-08T19:52:10.664Z,11.07
2018-04-08T19:54:38.243Z,10.70
2018-04-08T19:57:05.739Z,11.63
2018-04-08T19:59:33.202Z,11.33
2018-04-08T20:02:01.063Z,11.17
2018-04-08T20:04:28.809Z,12.20
2018-04-08T20:06:57.193Z,11.47
2018-04-08T20:09:25.047Z,10.47
2018-04-08T20:11:52.499Z,11.00
2018-04-08T20:14:20.012Z,10.80
2018-04-08T20:16:47.510Z,11.03
2018-04-08T20:19:15.040Z,10.23
2018-04-08T20:21:42.508Z,12.73
2018-04-08T20:24:10.017Z,11.73
2018-04-08T20:26:38.412Z,12.00
2018-04-08T20:29:05.897Z,10.53
2018-04-08T20:31:33.370Z,12.30
2018-04-08T20:34:00.874Z,11.93
2018-04-08T20:36:28.380Z,12.07
2018-04-08T20:38:56.655Z,12.33
2018-04-08T20:41:24.163Z,11.40
2018-04-08T20:43:51.674Z,12.07
2018-04-08T20:46:19.979Z,12.50
2018-04-08T20:48:47.469Z,11.30
2018-04-08T20:51:14.955Z,12.00
2018-04-08T20:53:42.585Z,12.30
2018-04-08T20:56:10.185Z,11.20
2018-04-08T20:58:37.701Z,10.87
2018-04-08T21:01:05.341Z,11.80
2018-04-08T21:03:33.029Z,11.97
2018-04-08T21:06:00.648Z,12.30
2018-04-08T21:08:28.259Z,11.80
2018-04-08T21:10:55.914Z,12.23
2018-04-08T21:13:23.492Z,10.97
2018-04-08T21:15:51.001Z,11.77
2018-04-08T21:18:18.519Z,11.70
2018-04-08T21:20:46.202Z,11.77
2018-04-08T21:23:14.499Z,11.17
2018-04-08T21:25:41.975Z,11.00
2018-04-08T21:28:09.529Z,11.93
2018-04-08T21:30:37.035Z,11.17
2018-04-08T21:33:04.542Z,12.20
2018-04-08T21:35:32.793Z,12.43
2018-04-08T21:38:00.306Z,12.83
2018-04-08T21:40:27.813Z,12.73
2018-04-08T21:42:55.303Z,12.10
2018-04-08T21:45:22.820Z,13.03
2018-04-08T21:47:50.316Z,12.20
2018-04-08T21:50:17.801Z,13.97
2018-04-08T21:52:45.386Z,13.70
2018-04-08T21:55:13.642Z,11.37
2018-04-08T21:57:41.107Z,13.00
2018-04-08T22:00:08.586Z,13.57
2018-04-08T22:02:36.850Z,10.90
2018-04-08T22:05:05.140Z,11.30
2018-04-08T22:07:33.401Z,12.10
2018-04-08T22:10:00.906Z,11.60
2018-04-08T22:12:28.379Z,11.90
2018-04-08T22:14:55.960Z,11.10
2018-04-08T22:17:23.452Z,11.23
2018-04-08T22:19:50.944Z,12.27
2018-04-08T22:22:18.435Z,10.90
2018-04-08T22:24:45.953Z,10.67
2018-04-08T22:27:13.451Z,11.97
2018-04-08T22:29:40.953Z,11.17
2018-04-08T22:32:08.464Z,11.20
2018-04-08T22:34:35.972Z,10.93
2018-04-08T22:37:03.665Z,11.93
2018-04-08T22:39:31.428Z,10.87
2018-04-08T22:41:58.938Z,12.67
2018-04-08T22:44:27.201Z,11.17
2018-04-08T22:46:55.452Z,11.80
2018-04-08T22:49:22.957Z,10.80
2018-04-08T22:51:50.453Z,11.20
2018-04-08T22:54:17.931Z,10.43
2018-04-08T22:56:45.617Z,11.57
2018-04-08T22:59:13.917Z,10.17
2018-04-08T23:01:41.424Z,11.00
2018-04-08T23:04:08.922Z,10.97
2018-04-08T23:06:37.187Z,10.53
2018-04-08T23:09:06.410Z,11.10
2018-04-08T23:11:33.894Z,10.20
2018-04-08T23:14:01.372Z,9.57
2018-04-08T23:16:28.862Z,9.70
2018-04-08T23:18:57.133Z,8.70
2018-04-08T23:21:25.386Z,9.80
2018-04-08T23:23:52.870Z,8.80
2018-04-08T23:26:21.119Z,9.63
2018-04-08T23:28:48.593Z,8.47
2018-04-08T23:31:16.055Z,8.27
2018-04-08T23:33:44.311Z,9.27
2018-04-08T23:36:11.810Z,8.57
2018-04-08T23:38:39.300Z,10.50
2018-04-08T23:41:06.775Z,8.50
2018-04-08T23:43:34.278Z,7.47
2018-04-08T23:46:01.756Z,8.10
2018-04-08T23:48:29.245Z,8.10
2018-04-08T23:50:56.750Z,8.40
2018-04-08T23:53:25.025Z,7.77
2018-04-08T23:55:52.526Z,8.23
2018-04-08T23:58:20.004Z,8.70
